Constitution — KCOJ — position and weather

sailwx.info

Track history (hours):
 
Tides and Currents Weather Stations Pressure Air Temp Water Temp Dewpoint Dewpoint Depression Visibility Wind Speed Wind Dir Waves Ship Positions

Constitution

Owner: Sea-Vista Newbuild III LLC, Fort Lauderdale, FL. More information available from US FCC via Universal Licensing System and Coast Guard Vessel Documentation Center.

Last reported at 2018-Jun-18 21:54 UTC. Time now 2018-Jun-19 02:55 UTC.
Position N 29°09' W 094°30'.

Length 187 m; draft 11.5 m.

Type: Tanker. MMSI: 338879000.

Date/timePositionNaut miles runAvg speedWind from/ knotsBaromVisibWave heightAir tempDewpointWater temp
2018-Jun-18 21:54N 29°09' W 094°30'0 0.0
2018-Jun-18 21:30N 29°09' W 094°30'0 0.0
2018-Jun-18 16:27N 29°09' W 094°30'0 0.0
2018-Jun-18 04:21N 29°09' W 094°30'0 0.0
2018-Jun-17 23:09N 29°09' W 094°30'0 0.1
2018-Jun-17 22:57N 29°09' W 094°30'0 0.0
2018-Jun-16 20:39N 29°09' W 094°30'0 0.2
2018-Jun-16 20:30N 29°09' W 094°30'0 0.0
2018-Jun-16 19:57N 29°09' W 094°30'0 0.0
2018-Jun-16 15:33N 29°09' W 094°30'0 0.0
2018-Jun-16 15:18N 29°09' W 094°30'0 0.0
2018-Jun-16 00:39N 29°09' W 094°30'0 0.0
2018-Jun-15 14:57N 29°09' W 094°30'  
2018-Jun-10 12:39N 25°18' W 080°04'212.2
2018-Jun-10 12:30N 25°20' W 080°03'612.1
2018-Jun-10 12:00N 25°25' W 080°01'612.6
2018-Jun-10 11:30N 25°32' W 079°60'612.7
2018-Jun-10 11:01N 25°38' W 079°60'713.0
2018-Jun-10 10:30N 25°44' W 079°59'612.8
2018-Jun-10 10:00N 25°51' W 079°59'612.2
2018-Jun-10 09:30N 25°57' W 079°58'612.0
2018-Jun-10 09:00N 26°03' W 079°58'611.5
2018-Jun-10 08:30N 26°09' W 079°58'611.2
2018-Jun-10 08:00N 26°14' W 079°57'510.9
2018-Jun-10 07:30N 26°20' W 079°56'510.5
2018-Jun-10 07:00N 26°25' W 079°56'510.2
2018-Jun-10 06:30N 26°30' W 079°55'20 9.7
2018-Jun-10 04:23N 26°50' W 079°55'4 9.4
2018-Jun-10 04:01N 26°54' W 079°55'5 9.4
2018-Jun-10 03:31N 26°59' W 079°55'5 9.3
2018-Jun-10 03:00N 27°03' W 079°55'  
Track history (hours):
 
Tides and Currents Weather Stations Pressure Air Temp Water Temp Dewpoint Dewpoint Depression Visibility Wind Speed Wind Dir Waves Ship Positions

Constitution

Owner: Sea-Vista Newbuild III LLC, Fort Lauderdale, FL. More information available from US FCC via Universal Licensing System and Coast Guard Vessel Documentation Center.

Last reported at 2018-Jun-18 21:54 UTC. Time now 2018-Jun-19 02:55 UTC.
Position N 29°09' W 094°30'.

Length 187 m; draft 11.5 m.

Type: Tanker. MMSI: 338879000.

Date/timePositionNaut miles runAvg speedWind from/ knotsBaromVisibWave heightAir tempDewpointWater temp
2018-Jun-18 21:54N 29°09' W 094°30'0 0.0
2018-Jun-18 21:30N 29°09' W 094°30'0 0.0
2018-Jun-18 16:27N 29°09' W 094°30'0 0.0
2018-Jun-18 04:21N 29°09' W 094°30'0 0.0
2018-Jun-17 23:09N 29°09' W 094°30'0 0.1
2018-Jun-17 22:57N 29°09' W 094°30'0 0.0
2018-Jun-16 20:39N 29°09' W 094°30'0 0.2
2018-Jun-16 20:30N 29°09' W 094°30'0 0.0
2018-Jun-16 19:57N 29°09' W 094°30'0 0.0
2018-Jun-16 15:33N 29°09' W 094°30'0 0.0
2018-Jun-16 15:18N 29°09' W 094°30'0 0.0
2018-Jun-16 00:39N 29°09' W 094°30'0 0.0
2018-Jun-15 14:57N 29°09' W 094°30'  
2018-Jun-10 12:39N 25°18' W 080°04'212.2
2018-Jun-10 12:30N 25°20' W 080°03'612.1
2018-Jun-10 12:00N 25°25' W 080°01'612.6
2018-Jun-10 11:30N 25°32' W 079°60'612.7
2018-Jun-10 11:01N 25°38' W 079°60'713.0
2018-Jun-10 10:30N 25°44' W 079°59'612.8
2018-Jun-10 10:00N 25°51' W 079°59'612.2
2018-Jun-10 09:30N 25°57' W 079°58'612.0
2018-Jun-10 09:00N 26°03' W 079°58'611.5
2018-Jun-10 08:30N 26°09' W 079°58'611.2
2018-Jun-10 08:00N 26°14' W 079°57'510.9
2018-Jun-10 07:30N 26°20' W 079°56'510.5
2018-Jun-10 07:00N 26°25' W 079°56'510.2
2018-Jun-10 06:30N 26°30' W 079°55'20 9.7
2018-Jun-10 04:23N 26°50' W 079°55'4 9.4
2018-Jun-10 04:01N 26°54' W 079°55'5 9.4
2018-Jun-10 03:31N 26°59' W 079°55'5 9.3
2018-Jun-10 03:00N 27°03' W 079°55'  

Dump ship's entire track history